createdAt,value
2023-05-08T00:03:51.617Z,16.40
2023-05-08T00:08:55.109Z,16.50
2023-05-08T00:13:56.885Z,16.40
2023-05-08T00:18:59.600Z,16.40
2023-05-08T00:24:01.300Z,16.40
2023-05-08T00:29:04.542Z,16.40
2023-05-08T00:34:07.819Z,16.40
2023-05-08T00:39:09.533Z,16.40
2023-05-08T00:44:11.225Z,16.20
2023-05-08T00:49:14.604Z,16.20
2023-05-08T00:54:17.218Z,16.30
2023-05-08T00:59:21.211Z,16.30
2023-05-08T01:04:26.633Z,16.30
2023-05-08T01:09:28.338Z,16.20
2023-05-08T01:14:51.260Z,16.20
2023-05-08T01:20:19.478Z,16.20
2023-05-08T01:25:45.945Z,16.30
2023-05-08T01:31:02.999Z,16.30
2023-05-08T01:36:36.961Z,16.20
2023-05-08T01:41:41.198Z,16.20
2023-05-08T01:46:48.003Z,16.20
2023-05-08T01:51:57.701Z,16.10
2023-05-08T01:57:01.603Z,16.10
2023-05-08T02:02:05.507Z,16.10
2023-05-08T02:07:08.082Z,16.20
2023-05-08T02:12:12.039Z,16.20
2023-05-08T02:17:16.692Z,16.20
2023-05-08T02:22:21.408Z,16.30
2023-05-08T02:27:25.548Z,16.20
2023-05-08T02:32:27.971Z,16.20
2023-05-08T02:37:31.105Z,16.20
2023-05-08T02:42:33.290Z,16.20
2023-05-08T02:47:43.879Z,16.10
2023-05-08T02:52:58.441Z,16.00
2023-05-08T02:58:17.739Z,16.10
2023-05-08T03:03:19.497Z,16.10
2023-05-08T03:08:33.723Z,16.00
2023-05-08T03:13:36.159Z,15.90
2023-05-08T03:18:45.030Z,15.90
2023-05-08T03:23:52.367Z,15.90
2023-05-08T03:28:54.353Z,15.90
2023-05-08T03:33:56.963Z,15.90
2023-05-08T03:39:00.328Z,15.90
2023-05-08T03:44:03.674Z,15.90
2023-05-08T03:49:08.841Z,15.90
2023-05-08T03:54:10.915Z,15.90
2023-05-08T03:59:35.483Z,16.00
2023-05-08T04:04:41.370Z,16.00
2023-05-08T04:10:12.076Z,15.90
2023-05-08T04:15:23.085Z,15.90
2023-05-08T04:20:27.412Z,15.80
2023-05-08T04:25:30.894Z,15.90
2023-05-08T04:30:33.294Z,16.00
2023-05-08T04:35:35.133Z,15.90
2023-05-08T04:40:36.912Z,15.90
2023-05-08T04:45:38.770Z,15.80
2023-05-08T04:50:40.677Z,15.80
2023-05-08T04:55:42.397Z,15.70
2023-05-08T05:00:44.175Z,15.70
2023-05-08T05:05:45.940Z,15.80
2023-05-08T05:10:47.615Z,16.00
2023-05-08T05:15:51.465Z,16.00
2023-05-08T05:20:53.264Z,16.10
2023-05-08T05:25:54.987Z,16.10
2023-05-08T05:30:56.845Z,16.20
2023-05-08T05:35:59.273Z,16.20
2023-05-08T05:41:01.069Z,16.30
2023-05-08T05:46:09.874Z,16.30
2023-05-08T05:51:12.021Z,16.40
2023-05-08T05:56:14.816Z,16.40
2023-05-08T06:01:16.698Z,16.40
2023-05-08T06:06:18.473Z,16.40
2023-05-08T06:11:20.189Z,16.50
2023-05-08T06:16:23.281Z,16.50
2023-05-08T06:21:25.133Z,16.40
2023-05-08T06:26:27.033Z,16.60
2023-05-08T06:31:28.856Z,16.60
2023-05-08T06:36:30.842Z,16.80
2023-05-08T06:41:32.577Z,17.00
2023-05-08T06:46:34.382Z,17.30
2023-05-08T06:51:38.268Z,17.30
2023-05-08T06:56:39.981Z,17.40
2023-05-08T07:01:41.869Z,17.60
2023-05-08T07:06:43.609Z,17.70
2023-05-08T07:11:45.395Z,18.20
2023-05-08T07:16:47.108Z,18.30
2023-05-08T07:21:48.853Z,18.20
2023-05-08T07:26:51.598Z,18.00
2023-05-08T07:31:53.469Z,17.90
2023-05-08T07:36:55.706Z,17.80
2023-05-08T07:41:57.488Z,17.80
2023-05-08T07:46:59.497Z,17.80
2023-05-08T07:52:01.239Z,17.90
2023-05-08T07:57:02.970Z,17.90
2023-05-08T08:02:04.716Z,18.00
2023-05-08T08:07:06.584Z,18.20
2023-05-08T08:12:08.311Z,18.10
2023-05-08T08:17:10.087Z,18.40
2023-05-08T08:22:11.885Z,18.60
2023-05-08T08:27:13.666Z,18.70
2023-05-08T08:32:15.597Z,19.00
2023-05-08T08:37:17.544Z,19.30
2023-05-08T08:42:19.305Z,19.60
2023-05-08T08:47:26.385Z,19.70
2023-05-08T08:52:36.762Z,19.70
2023-05-08T08:57:48.032Z,19.50
2023-05-08T09:02:49.829Z,19.20
2023-05-08T09:07:55.162Z,19.20
2023-05-08T09:12:57.008Z,19.70
2023-05-08T09:17:59.311Z,20.50
2023-05-08T09:23:02.721Z,20.80
2023-05-08T09:28:33.705Z,21.10
2023-05-08T09:33:44.501Z,21.40
2023-05-08T09:38:46.218Z,21.30
2023-05-08T09:44:01.964Z,20.60
2023-05-08T09:49:04.470Z,20.40
2023-05-08T09:54:18.072Z,20.10
2023-05-08T09:59:24.301Z,20.00
2023-05-08T10:04:36.805Z,19.60
2023-05-08T10:09:49.928Z,19.50
2023-05-08T10:14:52.551Z,19.60
2023-05-08T10:20:01.139Z,19.70
2023-05-08T10:25:03.544Z,19.60
2023-05-08T10:30:06.581Z,19.50
2023-05-08T10:35:10.998Z,19.20
2023-05-08T10:40:15.994Z,19.80
2023-05-08T10:45:18.523Z,20.00
2023-05-08T10:50:37.696Z,21.00
2023-05-08T10:55:42.559Z,21.60
2023-05-08T11:00:53.452Z,21.60
2023-05-08T11:05:56.977Z,22.40
2023-05-08T11:10:58.660Z,22.50
2023-05-08T11:16:00.593Z,22.60
2023-05-08T11:21:04.928Z,22.50
2023-05-08T11:26:14.932Z,23.00
2023-05-08T11:31:16.695Z,22.80
2023-05-08T11:36:25.399Z,22.80
2023-05-08T11:41:27.229Z,23.10
2023-05-08T11:46:39.398Z,23.50
2023-05-08T11:51:45.037Z,24.60
2023-05-08T11:56:48.247Z,26.10
2023-05-08T12:02:07.076Z,26.30
2023-05-08T12:07:11.762Z,26.50
2023-05-08T12:12:13.495Z,27.90
2023-05-08T12:17:18.567Z,27.90
2023-05-08T12:22:22.125Z,25.80
2023-05-08T12:27:25.284Z,25.70
2023-05-08T12:32:28.968Z,25.00
2023-05-08T12:37:30.987Z,24.50
2023-05-08T12:42:48.158Z,24.00
2023-05-08T12:47:51.341Z,23.60
2023-05-08T12:52:53.439Z,23.60
2023-05-08T12:58:14.251Z,23.20
2023-05-08T13:03:30.423Z,23.10
2023-05-08T13:08:33.169Z,23.00
2023-05-08T13:13:36.522Z,23.20
2023-05-08T13:18:38.301Z,23.30
2023-05-08T13:23:40.061Z,23.70
2023-05-08T13:28:41.781Z,23.30
2023-05-08T13:33:43.486Z,22.90
2023-05-08T13:38:45.353Z,22.50
2023-05-08T13:43:50.298Z,22.60
2023-05-08T13:48:52.073Z,22.30
2023-05-08T13:53:53.808Z,21.40
2023-05-08T13:58:55.602Z,20.80
2023-05-08T14:03:57.476Z,20.70
2023-05-08T14:08:59.338Z,20.60
2023-05-08T14:14:01.054Z,20.40
2023-05-08T14:19:02.844Z,20.30
2023-05-08T14:24:04.987Z,20.30
2023-05-08T14:29:06.775Z,20.50
2023-05-08T14:34:08.492Z,20.80
2023-05-08T14:39:10.228Z,21.10
2023-05-08T14:44:11.941Z,20.90
2023-05-08T14:49:17.099Z,20.80
2023-05-08T14:54:24.157Z,20.70
2023-05-08T14:59:26.133Z,20.80
2023-05-08T15:04:27.841Z,21.20
2023-05-08T15:09:29.546Z,21.50
2023-05-08T15:14:31.448Z,21.50
2023-05-08T15:19:33.151Z,21.30
2023-05-08T15:24:34.986Z,21.30
2023-05-08T15:29:37.044Z,21.10
2023-05-08T15:34:40.641Z,21.10
2023-05-08T15:39:43.322Z,21.30
2023-05-08T15:49:50.395Z,20.90
2023-05-08T15:54:52.204Z,20.60
2023-05-08T15:59:54.267Z,20.60
2023-05-08T16:04:56.005Z,20.60
2023-05-08T16:09:57.912Z,20.80
2023-05-08T16:14:59.656Z,20.70
2023-05-08T16:20:03.585Z,20.40
2023-05-08T16:25:05.749Z,20.10
2023-05-08T16:30:08.099Z,20.20
2023-05-08T16:35:11.406Z,19.90
2023-05-08T16:40:13.664Z,20.10
2023-05-08T16:45:15.589Z,20.20
2023-05-08T16:50:17.552Z,20.00
2023-05-08T16:55:19.504Z,19.90
2023-05-08T17:00:22.784Z,19.60
2023-05-08T17:05:24.666Z,19.60
2023-05-08T17:10:26.545Z,19.50
2023-05-08T17:15:28.380Z,19.60
2023-05-08T17:20:30.102Z,19.60
2023-05-08T17:25:31.848Z,19.60
2023-05-08T17:30:33.616Z,19.60
2023-05-08T17:35:35.355Z,19.60
2023-05-08T17:40:37.157Z,19.50
2023-05-08T17:45:39.255Z,19.30
2023-05-08T17:50:42.278Z,19.30
2023-05-08T17:55:43.990Z,19.30
2023-05-08T18:00:45.718Z,19.10
2023-05-08T18:05:47.524Z,19.20
2023-05-08T18:10:49.243Z,19.00
2023-05-08T18:15:51.374Z,19.00
2023-05-08T18:20:53.591Z,18.80
2023-05-08T18:25:55.318Z,18.80
2023-05-08T18:30:57.076Z,18.80
2023-05-08T18:35:58.860Z,18.70
2023-05-08T18:41:05.190Z,18.60
2023-05-08T18:46:13.223Z,18.50
2023-05-08T18:51:15.060Z,18.40
2023-05-08T18:56:16.833Z,18.40
2023-05-08T19:01:20.217Z,18.20
2023-05-08T19:06:22.047Z,18.00
2023-05-08T19:11:23.830Z,18.00
2023-05-08T19:16:25.674Z,17.90
2023-05-08T19:21:27.525Z,17.80
2023-05-08T19:26:29.248Z,17.70
2023-05-08T19:31:31.020Z,17.70
2023-05-08T19:36:33.065Z,17.60
2023-05-08T19:41:35.612Z,17.40
2023-05-08T19:46:37.690Z,17.50
2023-05-08T19:51:39.830Z,17.40
2023-05-08T19:56:41.547Z,17.50
2023-05-08T20:01:43.615Z,17.50
2023-05-08T20:06:45.442Z,17.40
2023-05-08T20:11:47.160Z,17.40
2023-05-08T20:16:48.860Z,17.30
2023-05-08T20:21:50.561Z,17.20
2023-05-08T20:26:54.556Z,17.10
2023-05-08T20:31:56.322Z,17.00
2023-05-08T20:36:59.261Z,17.10
2023-05-08T20:42:01.015Z,17.00
2023-05-08T20:47:02.816Z,17.00
2023-05-08T20:52:05.589Z,17.10
2023-05-08T20:57:07.321Z,17.00
2023-05-08T21:02:09.024Z,17.00
2023-05-08T21:07:10.747Z,16.70
2023-05-08T21:12:12.450Z,16.80
2023-05-08T21:17:14.146Z,16.80
2023-05-08T21:22:17.378Z,16.60
2023-05-08T21:27:19.095Z,16.60
2023-05-08T21:32:20.835Z,16.60
2023-05-08T21:37:22.592Z,16.70
2023-05-08T21:42:24.270Z,16.60
2023-05-08T21:47:28.010Z,16.60
2023-05-08T21:52:30.036Z,16.60
2023-05-08T21:57:31.735Z,16.50
2023-05-08T22:02:33.692Z,16.40
2023-05-08T22:07:35.665Z,16.30
2023-05-08T22:12:37.595Z,16.30
2023-05-08T22:17:40.666Z,16.30
2023-05-08T22:22:42.465Z,16.30
2023-05-08T22:27:44.187Z,16.10
2023-05-08T22:32:54.474Z,15.70
2023-05-08T22:37:59.126Z,15.80
2023-05-08T22:43:01.096Z,15.90
2023-05-08T22:48:03.735Z,15.80
2023-05-08T22:53:08.138Z,15.80
2023-05-08T22:58:09.874Z,15.70
2023-05-08T23:03:12.929Z,15.70
2023-05-08T23:08:14.790Z,15.60
2023-05-08T23:13:16.512Z,15.60
2023-05-08T23:18:18.345Z,15.60
2023-05-08T23:23:20.185Z,15.60
2023-05-08T23:28:21.860Z,15.50
2023-05-08T23:33:23.576Z,15.40
2023-05-08T23:38:25.641Z,15.20
2023-05-08T23:43:27.413Z,15.10
2023-05-08T23:48:29.108Z,15.10
2023-05-08T23:53:30.796Z,15.10
2023-05-08T23:58:32.491Z,15.00
